METAR AND TAF INFORMATION
METAR FOR LTFE
ADDS - METARS form results

(0415 UTC 26 August 2019)
Data provider http://aviationweather.gov/metar/data/
 
METAR text: LTFE 260350Z VRB01KT CAVOK 20/17 Q1009 NOSIG RMK RWY10 03002KT
Conditions at: LTFE (BODRUM MILAS , TR) observed 0350 UTC 26 August 2019
Temperature: 20.0°C (68°F)
Dewpoint: 17.0°C (63°F) [RH = 83%]
Pressure (altimeter): 29.79 inches Hg (1009.0 mb)
Winds: variable direction winds at 1 MPH (1 knots; 0.5 m/s)
Visibility: 6 or more miles (10+ km)
Ceiling: ceiling and visibility are OK
Clouds: unknown
Weather: no significant weather observed at this time

METAR text: LTFE 260320Z VRB01KT CAVOK 21/18 Q1009 NOSIG RMK RWY10 VRB01KT
Conditions at: LTFE (BODRUM MILAS , TR) observed 0320 UTC 26 August 2019
Temperature: 21.0°C (70°F)
Dewpoint: 18.0°C (64°F) [RH = 83%]
Pressure (altimeter): 29.79 inches Hg (1009.0 mb)
Winds: variable direction winds at 1 MPH (1 knots; 0.5 m/s)
Visibility: 6 or more miles (10+ km)
Ceiling: ceiling and visibility are OK
Clouds: unknown
Weather: no significant weather observed at this time

Forecast for: LTFE (BODRUM MILAS , TR)
Text: TAF LTFE 252240Z 2600/2624 VRB02KT CAVOK
Forecast period: 0000 to 0800 UTC 26 August 2019
Forecast type: FROM: standard forecast or significant change
Winds: variable direction winds at 2 MPH (2 knots; 1.0 m/s)
Visibility: 6 or more miles 10+ km)
Ceiling: unknown
Clouds: missing
Weather: NSW  (no significant weather)
Text: BECMG 2608/2610 25015KT FEW035
Forecast period: 0800 to 1500 UTC 26 August 2019
Forecast type: BECOMING: Conditions expected to become as follows by 1000 UTC 26 August 2019
Winds: from the WSW (250 degrees) at 17 MPH (15 knots; 7.7 m/s)
Visibility: 6 or more miles 10+ km)
Ceiling: at least 12,000 feet AGL
Clouds: few clouds at 3500 feet AGL
Weather: NSW  (no significant weather)
Text: BECMG 2615/2618 VRB02KT CAVOK
Forecast period: 1500 UTC 26 August 2019 to 0000 UTC 27 August 2019
Forecast type: BECOMING: Conditions expected to become as follows by 1800 UTC 26 August 2019
Winds: variable direction winds at 2 MPH (2 knots; 1.0 m/s)
Visibility: 6 or more miles 10+ km)
Ceiling: unknown
Clouds: missing
Weather: NSW  (no significant weather)

 AIRPORT MAP

 RUNWAY INFORMATION

 AIRPORT FREQUENCIES
Type APP Name MENDERES A Frequency 119.5 MHZ
Type APP Name MENDERES A Frequency 119.775 MHZ
Type ATIS Name ATIS Frequency 128.5 MHZ
Type GND Name GND Frequency 121.95 MHZ
Type TWR Name TWR Frequency 120.5 MHZ

 AIRPORT NEAR NAVIGATION AIDS
Type VOR-DME Name Milas Bodrum Frequency 116700 KHZ
Type NDB Name Milas Bodrum Frequency 389 KHZ
Type VOR-DME Name Kiyikislacik Frequency 113900 KHZ



2018 Air Astana Virtual Airline